Portada
METAR-TAF:

METAR-TAF

Aeropuertos :

Bou Saâda, Argelia

latitud: 35-20N, longitud: 004-12E, altitud: 461 m

Observación

El informe se hizo hace 17 minutos, a las 08:00 UTC
Viento 8 kt del norte-noroeste
Temperatura 15°C
Humedad 44%
Presión 1025 hPa
Visibilidad 10 km o más
sin nubes por debajo de 1500 m y sin presencia de cumulonimbus.

METAR: DAAD 280800Z 33008KT CAVOK 15/03 Q1025

Hora: 09:17 (08:17 UTC)

Pronóstico

El informe se hizo hace 15 horas y 17 minutos, a las 17:00 UTC
Pronóstico válido del 27 a las 18 UTC al 28 a las 03 UTC
Viento 10 kt del noroeste
Visibilidad: 9000 m

TAF: DAAD 271700Z 2718/2803 32010KT 9000 NSC

Observaciones y pronósticos meteorológicos de más de 4000 aeropuertos (mensajes METAR y TAF).

Los puntos amarillos y rojos representan las estaciones disponibles.

Ponga el ratón en el punto deseado para ver el nombre de la estación.

Haga clic para ver las observaciones y los pronósticos meteorológicos.

Para cambiar el mapa : haga clic en los botones verdes con una cruz de color negro para hacer un zoom, en el botón verde con un guión para alejar o en las flechas verdes para mapas adyacentes.


METAR-TAF: